createdAt,value
2024-04-10T00:01:50.199Z,11.42
2024-04-10T00:04:17.547Z,11.35
2024-04-10T00:06:44.756Z,11.25
2024-04-10T00:09:12.091Z,11.26
2024-04-10T00:11:39.338Z,11.21
2024-04-10T00:14:09.237Z,11.10
2024-04-10T00:16:36.298Z,11.10
2024-04-10T00:19:03.577Z,11.05
2024-04-10T00:21:36.176Z,11.03
2024-04-10T00:24:03.400Z,11.00
2024-04-10T00:26:30.455Z,10.97
2024-04-10T00:28:57.608Z,10.94
2024-04-10T00:31:27.389Z,10.92
2024-04-10T00:33:54.543Z,10.84
2024-04-10T00:36:21.816Z,10.80
2024-04-10T00:38:48.956Z,10.80
2024-04-10T00:41:16.481Z,10.72
2024-04-10T00:43:43.873Z,10.68
2024-04-10T00:46:15.816Z,10.62
2024-04-10T00:48:46.562Z,10.54
2024-04-10T00:51:17.345Z,10.51
2024-04-10T00:53:45.222Z,10.52
2024-04-10T00:56:12.561Z,10.39
2024-04-10T00:58:40.005Z,10.23
2024-04-10T01:01:08.379Z,10.15
2024-04-10T01:03:39.192Z,10.01
2024-04-10T01:06:10.320Z,9.99
2024-04-10T01:08:38.661Z,9.94
2024-04-10T01:11:07.092Z,9.90
2024-04-10T01:13:35.191Z,9.93
2024-04-10T01:16:02.449Z,9.97
2024-04-10T01:18:29.597Z,10.07
2024-04-10T01:20:56.615Z,10.07
2024-04-10T01:23:26.408Z,10.05
2024-04-10T01:25:53.625Z,10.06
2024-04-10T01:28:20.731Z,10.07
2024-04-10T01:30:47.864Z,10.08
2024-04-10T01:33:15.020Z,10.15
2024-04-10T01:35:42.658Z,10.12
2024-04-10T01:38:09.994Z,9.99
2024-04-10T01:40:40.857Z,9.93
2024-04-10T01:43:07.889Z,9.87
2024-04-10T01:45:41.631Z,9.94
2024-04-10T01:48:09.030Z,9.81
2024-04-10T01:50:36.239Z,9.72
2024-04-10T01:53:03.376Z,9.74
2024-04-10T01:55:30.454Z,9.71
2024-04-10T01:58:00.199Z,9.71
2024-04-10T02:00:27.526Z,9.66
2024-04-10T02:02:54.932Z,9.58
2024-04-10T02:05:22.308Z,9.57
2024-04-10T02:07:52.124Z,9.51
2024-04-10T02:10:19.206Z,9.47
2024-04-10T02:12:46.236Z,9.46
2024-04-10T02:15:16.118Z,9.41
2024-04-10T02:17:43.412Z,9.33
2024-04-10T02:20:19.491Z,9.28
2024-04-10T02:22:46.558Z,9.24
